Time;durP1;ratioP1;P1;durP2;ratioP2;P2;SDS_P1;SDS_P2;PMS_P1;PMS_P2;Temp;Humidity;BMP_temperature;BMP_pressure;BME280_temperature;BME280_humidity;BME280_pressure;Samples;Min_cycle;Max_cycle;Signal;HPM_P1;HPM_P2
2023/09/27 00:00:19;;;;;;;2.40;1.23;;;17.40;91.60;;;;;;4984477;28;20133;-16
2023/09/27 00:02:44;;;;;;;2.22;1.20;;;17.30;91.60;;;;;;4950798;28;20441;-16
2023/09/27 00:05:11;;;;;;;2.13;1.30;;;17.30;91.60;;;;;;4986606;28;20113;-17
2023/09/27 00:07:38;;;;;;;1.83;1.20;;;17.30;91.60;;;;;;4977359;28;20045;-16
2023/09/27 00:10:11;;;;;;;1.60;1.20;;;17.20;91.60;;;;;;4968830;28;20378;-17
2023/09/27 00:12:38;;;;;;;1.75;1.30;;;17.20;91.70;;;;;;4940230;28;20523;-16
2023/09/27 00:15:07;;;;;;;2.07;1.23;;;17.20;91.70;;;;;;4974374;28;20442;-17
2023/09/27 00:17:33;;;;;;;1.23;1.13;;;17.10;91.70;;;;;;4979650;28;20021;-17
2023/09/27 00:19:59;;;;;;;1.73;1.20;;;17.10;91.70;;;;;;4996816;28;20026;-17
2023/09/27 00:22:25;;;;;;;1.50;1.10;;;17.10;91.70;;;;;;4990553;28;20041;-17
2023/09/27 00:24:51;;;;;;;1.30;1.10;;;17.00;91.80;;;;;;4972966;28;20595;-16
2023/09/27 00:27:17;;;;;;;1.45;1.20;;;17.00;91.80;;;;;;5028415;28;20099;-16
2023/09/27 00:29:43;;;;;;;1.98;1.13;;;17.00;91.80;;;;;;4984949;28;20416;-16
2023/09/27 00:32:09;;;;;;;2.30;1.10;;;17.00;91.90;;;;;;4967432;28;20073;-17
2023/09/27 00:34:35;;;;;;;1.35;1.00;;;16.90;91.80;;;;;;4978353;28;20667;-17
2023/09/27 00:37:01;;;;;;;1.52;1.10;;;16.90;91.90;;;;;;4969254;28;20276;-17
2023/09/27 00:39:27;;;;;;;1.63;1.20;;;16.90;91.90;;;;;;4968764;28;20515;-16
2023/09/27 00:41:53;;;;;;;1.20;1.07;;;16.90;92.00;;;;;;4988778;28;20496;-16
2023/09/27 00:44:19;;;;;;;1.55;1.13;;;16.90;92.00;;;;;;4943390;28;20548;-17
2023/09/27 00:46:44;;;;;;;1.70;1.20;;;16.80;92.00;;;;;;4972808;28;20581;-16
2023/09/27 00:49:12;;;;;;;2.33;1.08;;;16.80;92.00;;;;;;4979091;28;20030;-17
2023/09/27 00:51:39;;;;;;;1.20;1.08;;;16.80;92.10;;;;;;4971172;28;20033;-16
2023/09/27 00:54:06;;;;;;;2.55;1.15;;;16.80;92.10;;;;;;4974139;28;20037;-17
2023/09/27 00:56:32;;;;;;;1.90;1.30;;;16.70;92.10;;;;;;4982318;28;20045;-17
2023/09/27 00:58:58;;;;;;;1.77;1.23;;;16.70;92.10;;;;;;4964959;28;20053;-17
2023/09/27 01:01:28;;;;;;;1.63;1.38;;;16.70;92.20;;;;;;4982367;28;20617;-19
2023/09/27 01:03:54;;;;;;;1.73;1.20;;;16.60;92.20;;;;;;5115280;23;20141;-83
2023/09/27 01:06:20;;;;;;;1.93;1.40;;;16.60;92.20;;;;;;5113246;28;20020;-83
2023/09/27 01:08:46;;;;;;;1.75;1.20;;;16.60;92.20;;;;;;5129835;27;20020;-83
2023/09/27 01:11:12;;;;;;;1.80;1.30;;;16.60;92.30;;;;;;5126667;27;20096;-83
2023/09/27 01:13:38;;;;;;;3.15;1.50;;;16.50;93.60;;;;;;5097556;27;20039;-83
2023/09/27 01:16:05;;;;;;;2.03;1.40;;;16.60;92.30;;;;;;5131806;28;20058;-83
2023/09/27 01:18:31;;;;;;;2.33;1.40;;;16.60;92.30;;;;;;5110086;28;20020;-83
2023/09/27 01:20:56;;;;;;;1.88;1.20;;;16.50;92.30;;;;;;5095345;27;20032;-83
2023/09/27 01:23:22;;;;;;;1.63;1.10;;;15.40;93.60;;;;;;5113612;28;20034;-83
2023/09/27 01:25:58;;;;;;;1.70;1.33;;;16.90;93.80;;;;;;5131218;27;20016;-83
2023/09/27 01:28:24;;;;;;;2.10;1.38;;;16.50;92.40;;;;;;5114794;28;20083;-83
2023/09/27 01:30:50;;;;;;;2.45;1.30;;;16.50;92.30;;;;;;5090615;28;20035;-83
2023/09/27 01:33:15;;;;;;;2.53;1.03;;;16.40;92.20;;;;;;5115632;28;20016;-83
2023/09/27 01:35:43;;;;;;;1.63;1.13;;;17.40;94.00;;;;;;5112524;27;20051;-83
2023/09/27 01:38:11;;;;;;;2.65;1.25;;;16.30;92.30;;;;;;5113923;27;20028;-83
2023/09/27 01:40:42;;;;;;;1.93;1.30;;;16.30;92.30;;;;;;5110932;28;20027;-83
2023/09/27 01:43:08;;;;;;;1.85;1.20;;;16.30;92.30;;;;;;5091483;28;20028;-84
2023/09/27 01:45:35;;;;;;;2.33;1.17;;;16.30;92.30;;;;;;5085684;28;20028;-83
2023/09/27 01:48:02;;;;;;;1.55;1.10;;;16.20;92.30;;;;;;5090330;28;20039;-84
2023/09/27 01:50:30;;;;;;;1.88;1.20;;;15.40;94.00;;;;;;5073519;28;20016;-83
2023/09/27 01:52:56;;;;;;;1.70;1.20;;;16.20;92.40;;;;;;5104247;28;20024;-83
2023/09/27 01:55:24;;;;;;;2.88;1.38;;;16.20;92.50;;;;;;5092998;28;20042;-83
2023/09/27 01:57:50;;;;;;;2.65;1.30;;;16.20;92.50;;;;;;5091213;28;20042;-83
2023/09/27 02:00:18;;;;;;;1.85;1.20;;;16.20;92.50;;;;;;5068328;28;20601;-83
2023/09/27 02:02:45;;;;;;;1.85;1.50;;;16.10;92.50;;;;;;5059542;28;20066;-83
2023/09/27 02:05:11;;;;;;;2.53;1.60;;;16.10;92.60;;;;;;5088378;28;20070;-83
2023/09/27 02:07:38;;;;;;;1.88;1.23;;;16.10;92.60;;;;;;5085669;28;20490;-83
2023/09/27 02:10:08;;;;;;;1.30;1.00;;;16.10;92.60;;;;;;5087758;28;20505;-81
2023/09/27 02:12:36;;;;;;;2.10;1.40;;;16.00;92.70;;;;;;5089360;28;20039;-81
2023/09/27 02:15:03;;;;;;;1.80;1.30;;;16.00;92.60;;;;;;5084181;28;20020;-81
2023/09/27 02:17:29;;;;;;;2.00;1.20;;;16.00;92.60;;;;;;5062973;28;20040;-81
2023/09/27 02:19:55;;;;;;;1.45;1.10;;;16.00;92.60;;;;;;5068866;28;20044;-81
2023/09/27 02:22:21;;;;;;;1.60;1.20;;;16.00;92.70;;;;;;5082381;28;20496;-81
2023/09/27 02:24:47;;;;;;;1.50;1.30;;;16.00;92.70;;;;;;5088166;28;20032;-82
2023/09/27 02:27:14;;;;;;;1.90;1.20;;;15.90;92.70;;;;;;5087156;28;20533;-81
2023/09/27 02:29:41;;;;;;;2.30;1.25;;;15.90;92.70;;;;;;5084188;28;20537;-81
2023/09/27 02:32:07;;;;;;;2.90;1.80;;;15.90;92.70;;;;;;5056268;28;20508;-81
2023/09/27 02:34:34;;;;;;;1.70;1.20;;;15.90;92.80;;;;;;5069763;28;20473;-81
2023/09/27 02:37:00;;;;;;;1.80;1.30;;;15.20;94.20;;;;;;5083164;28;20506;-81
2023/09/27 02:39:26;;;;;;;2.10;1.40;;;15.90;92.80;;;;;;5070039;28;20432;-81
2023/09/27 02:41:52;;;;;;;1.75;1.50;;;15.90;92.80;;;;;;5097102;28;20517;-81
2023/09/27 02:44:18;;;;;;;2.13;1.63;;;15.90;92.90;;;;;;5087633;28;20012;-81
2023/09/27 02:46:44;;;;;;;2.22;1.35;;;15.90;93.10;;;;;;5083142;28;20569;-81
2023/09/27 02:49:10;;;;;;;2.17;1.20;;;15.90;92.90;;;;;;5061842;28;20449;-81
2023/09/27 02:51:37;;;;;;;2.35;1.50;;;15.80;92.90;;;;;;5070170;28;20467;-81
2023/09/27 02:54:04;;;;;;;1.10;1.00;;;15.80;92.90;;;;;;5066325;28;20556;-81
2023/09/27 02:56:30;;;;;;;1.90;1.20;;;15.80;93.00;;;;;;5084981;28;20482;-81
2023/09/27 02:58:56;;;;;;;3.30;1.40;;;15.80;92.90;;;;;;5069125;28;20012;-81
2023/09/27 03:01:22;;;;;;;1.95;1.40;;;15.80;92.90;;;;;;5082353;28;20058;-81
2023/09/27 03:03:47;;;;;;;2.03;1.45;;;15.80;92.90;;;;;;5077285;28;20109;-81
2023/09/27 03:06:17;;;;;;;1.90;1.30;;;15.80;92.90;;;;;;5065024;28;20033;-81
2023/09/27 03:08:46;;;;;;;1.88;1.30;;;15.80;92.90;;;;;;5064357;28;20597;-81
2023/09/27 03:11:12;;;;;;;1.85;1.15;;;15.70;92.90;;;;;;5083629;28;20474;-81
2023/09/27 03:13:43;;;;;;;1.73;1.23;;;15.70;92.90;;;;;;5089010;28;20382;-82
2023/09/27 03:16:09;;;;;;;2.20;1.60;;;15.70;93.00;;;;;;5080620;28;25332;-81
2023/09/27 03:18:34;;;;;;;1.98;1.30;;;15.60;92.90;;;;;;5075652;28;20020;-81
2023/09/27 03:21:00;;;;;;;1.90;1.27;;;15.60;93.00;;;;;;5080710;28;20013;-81
2023/09/27 03:23:27;;;;;;;1.57;1.30;;;15.60;93.10;;;;;;5085760;28;20065;-81
2023/09/27 03:25:54;;;;;;;1.95;1.27;;;15.50;93.10;;;;;;5085789;28;20465;-81
2023/09/27 03:28:19;;;;;;;2.25;1.33;;;15.50;93.10;;;;;;5087756;28;20403;-81
2023/09/27 03:30:47;;;;;;;1.80;1.30;;;15.50;93.10;;;;;;5086833;28;20035;-81
2023/09/27 03:33:13;;;;;;;1.77;1.40;;;15.50;93.20;;;;;;5051931;28;20461;-81
2023/09/27 03:35:40;;;;;;;2.10;1.30;;;15.50;93.20;;;;;;5086143;28;20069;-81
2023/09/27 03:38:06;;;;;;;1.57;1.17;;;15.50;93.20;;;;;;5085505;28;20489;-82
2023/09/27 03:40:32;;;;;;;2.15;1.38;;;15.50;95.00;;;;;;5080705;28;20107;-81
2023/09/27 03:42:58;;;;;;;2.22;1.35;;;15.40;93.20;;;;;;5086329;28;20028;-81
2023/09/27 03:45:23;;;;;;;1.50;1.10;;;15.40;93.20;;;;;;5068539;28;20509;-82
2023/09/27 03:47:49;;;;;;;1.93;1.17;;;15.40;93.30;;;;;;5081830;28;20032;-81
2023/09/27 03:50:15;;;;;;;1.67;1.20;;;15.40;93.30;;;;;;5074002;28;20479;-82
2023/09/27 03:52:42;;;;;;;1.52;1.30;;;15.40;93.40;;;;;;5086626;28;20374;-81
2023/09/27 03:55:08;;;;;;;2.00;1.20;;;15.40;93.40;;;;;;5082529;28;20027;-81
2023/09/27 03:57:35;;;;;;;2.78;1.42;;;15.40;93.40;;;;;;5069031;28;20028;-81
2023/09/27 04:00:01;;;;;;;2.47;1.20;;;15.40;93.40;;;;;;5089282;28;20390;-82
2023/09/27 04:02:29;;;;;;;1.30;1.20;;;15.40;93.40;;;;;;5084514;28;20331;-81
2023/09/27 04:04:54;;;;;;;1.50;1.30;;;15.40;93.50;;;;;;5072282;28;20035;-82
2023/09/27 04:07:20;;;;;;;2.07;1.50;;;15.40;93.50;;;;;;5068859;28;20478;-82
2023/09/27 04:09:47;;;;;;;1.52;1.30;;;15.40;93.50;;;;;;5083413;28;20394;-81
2023/09/27 04:12:12;;;;;;;1.52;1.33;;;15.40;93.50;;;;;;5086223;28;20035;-81
2023/09/27 04:14:39;;;;;;;2.10;1.40;;;15.40;93.50;;;;;;5086612;28;20482;-81
2023/09/27 04:17:05;;;;;;;1.70;1.40;;;15.40;93.60;;;;;;5087852;28;20059;-81
2023/09/27 04:19:31;;;;;;;1.70;1.20;;;15.40;93.60;;;;;;5066041;28;20138;-81
2023/09/27 04:21:57;;;;;;;1.60;1.30;;;15.40;93.70;;;;;;5061062;28;20024;-81
2023/09/27 04:24:23;;;;;;;2.17;1.30;;;15.40;93.70;;;;;;5082637;28;20403;-81
2023/09/27 04:26:49;;;;;;;3.15;1.67;;;15.40;93.70;;;;;;5067318;28;20504;-82
2023/09/27 04:29:15;;;;;;;2.15;1.40;;;15.40;93.70;;;;;;5083408;28;20032;-82
2023/09/27 04:31:41;;;;;;;2.20;1.47;;;15.40;93.80;;;;;;5084538;28;20427;-82
2023/09/27 04:34:07;;;;;;;2.50;1.20;;;15.40;93.70;;;;;;5082352;28;20411;-82
2023/09/27 04:36:32;;;;;;;2.30;1.30;;;15.40;93.70;;;;;;5053978;28;20504;-82
2023/09/27 04:38:58;;;;;;;2.00;1.40;;;15.40;93.80;;;;;;5082670;28;20024;-81
2023/09/27 04:41:24;;;;;;;2.63;1.50;;;15.30;93.80;;;;;;5083150;28;20028;-82
2023/09/27 04:43:50;;;;;;;2.20;1.45;;;15.30;93.70;;;;;;5065822;28;20368;-81
2023/09/27 04:46:18;;;;;;;1.52;1.23;;;16.20;95.50;;;;;;5084660;28;20032;-82
2023/09/27 04:48:47;;;;;;;1.70;1.30;;;15.30;95.20;;;;;;5068894;28;20023;-82
2023/09/27 04:51:14;;;;;;;1.38;1.10;;;15.30;93.80;;;;;;5093400;28;20069;-82
2023/09/27 04:53:40;;;;;;;2.42;1.13;;;15.30;93.70;;;;;;5081390;28;20028;-82
2023/09/27 04:56:12;;;;;;;2.05;1.40;;;15.30;93.70;;;;;;5084933;28;20032;-82
2023/09/27 04:58:40;;;;;;;2.00;1.40;;;15.30;93.80;;;;;;5062945;28;20453;-82
2023/09/27 05:01:06;;;;;;;1.83;1.30;;;15.30;93.70;;;;;;5083094;28;20020;-82
2023/09/27 05:03:31;;;;;;;1.98;1.27;;;15.20;93.60;;;;;;5071059;28;20162;-82
2023/09/27 05:05:57;;;;;;;1.60;1.38;;;15.20;93.60;;;;;;5079315;28;20111;-82
2023/09/27 05:08:26;;;;;;;1.80;1.30;;;15.20;93.70;;;;;;5070791;28;20028;-82
2023/09/27 05:10:52;;;;;;;1.92;1.23;;;15.20;93.70;;;;;;5066530;28;20039;-82
2023/09/27 05:13:21;;;;;;;1.73;1.40;;;15.10;93.70;;;;;;5074944;28;20028;-82
2023/09/27 05:15:52;;;;;;;1.85;1.30;;;15.10;93.70;;;;;;5082931;28;20046;-82
2023/09/27 05:18:18;;;;;;;1.52;1.27;;;15.10;93.70;;;;;;5085367;28;20062;-81
2023/09/27 05:20:44;;;;;;;1.83;1.10;;;15.10;93.70;;;;;;5066427;28;20030;-82
2023/09/27 05:23:11;;;;;;;1.80;1.30;;;15.00;93.70;;;;;;5069957;28;20279;-82
2023/09/27 05:25:37;;;;;;;2.05;1.35;;;15.00;93.80;;;;;;5063126;28;20028;-82
2023/09/27 05:28:03;;;;;;;2.10;1.33;;;14.70;95.30;;;;;;5062278;28;20032;-83
2023/09/27 05:30:29;;;;;;;2.53;1.30;;;14.60;95.50;;;;;;5084277;28;20074;-82
2023/09/27 05:32:54;;;;;;;2.28;1.60;;;15.00;93.80;;;;;;5082481;28;20028;-82
2023/09/27 05:35:20;;;;;;;3.10;1.50;;;15.00;93.90;;;;;;5068758;28;20047;-82
2023/09/27 05:37:46;;;;;;;2.00;1.40;;;14.90;93.90;;;;;;5076060;28;20032;-83
2023/09/27 05:40:12;;;;;;;1.67;1.20;;;14.90;93.90;;;;;;5074252;28;20017;-83
2023/09/27 05:42:39;;;;;;;1.47;1.27;;;14.90;94.00;;;;;;5065624;28;20038;-83
2023/09/27 05:45:06;;;;;;;1.55;1.17;;;14.90;94.00;;;;;;5064571;28;20341;-83
2023/09/27 05:47:32;;;;;;;3.58;1.50;;;14.90;94.00;;;;;;5081255;28;20088;-84
2023/09/27 05:49:58;;;;;;;2.20;1.40;;;14.50;95.90;;;;;;5081591;28;20082;-84
2023/09/27 05:52:25;;;;;;;1.80;1.20;;;14.90;94.20;;;;;;5047397;28;20021;-84
2023/09/27 05:54:51;;;;;;;1.53;1.30;;;14.90;94.20;;;;;;5020523;28;20039;-84
2023/09/27 05:57:17;;;;;;;1.85;1.35;;;14.40;96.00;;;;;;5067133;28;20028;-83
2023/09/27 05:59:46;;;;;;;2.90;1.80;;;14.90;94.30;;;;;;5075895;28;20097;-84
2023/09/27 06:02:16;;;;;;;2.38;1.55;;;14.90;94.40;;;;;;5063302;28;20038;-83
2023/09/27 06:04:47;;;;;;;2.50;1.50;;;15.00;94.40;;;;;;5066896;28;20030;-83
2023/09/27 06:07:15;;;;;;;2.67;1.73;;;15.00;94.50;;;;;;5068811;28;20489;-84
2023/09/27 06:09:41;;;;;;;2.20;1.30;;;15.00;94.60;;;;;;5030510;28;20626;-84
2023/09/27 06:12:08;;;;;;;3.50;1.63;;;15.00;94.80;;;;;;5062540;28;20488;-84
2023/09/27 06:14:34;;;;;;;2.15;1.67;;;15.00;94.70;;;;;;5022228;28;20488;-83
2023/09/27 06:17:02;;;;;;;1.60;1.23;;;15.10;94.80;;;;;;4995095;28;20033;-83
2023/09/27 06:19:28;;;;;;;2.08;1.45;;;15.10;94.80;;;;;;5065938;28;20462;-84
2023/09/27 06:21:54;;;;;;;2.55;1.50;;;15.20;94.80;;;;;;5068213;28;20045;-83
2023/09/27 06:24:19;;;;;;;2.10;1.40;;;15.20;94.90;;;;;;5055426;28;20022;-84
2023/09/27 06:26:45;;;;;;;2.08;1.48;;;15.20;94.90;;;;;;5048972;28;20026;-84
2023/09/27 06:29:11;;;;;;;2.33;1.40;;;15.30;94.90;;;;;;5049496;28;20130;-83
2023/09/27 06:31:37;;;;;;;1.98;1.38;;;15.30;94.90;;;;;;4996641;28;20143;-84
2023/09/27 06:34:03;;;;;;;2.10;1.50;;;15.30;95.00;;;;;;5069100;28;20118;-84
2023/09/27 06:36:29;;;;;;;2.35;1.50;;;15.30;95.00;;;;;;5070451;28;21516;-84
2023/09/27 06:38:59;;;;;;;2.80;1.60;;;15.40;95.10;;;;;;5070679;28;20113;-84
2023/09/27 06:41:25;;;;;;;2.10;1.50;;;15.40;95.40;;;;;;5059930;28;20507;-84
2023/09/27 06:43:50;;;;;;;2.80;1.70;;;15.40;95.10;;;;;;5063251;28;20026;-83
2023/09/27 06:46:17;;;;;;;2.55;1.65;;;15.50;95.10;;;;;;5066487;28;20384;-84
2023/09/27 06:48:43;;;;;;;2.60;1.60;;;15.50;95.20;;;;;;5054815;28;20230;-82
2023/09/27 06:51:11;;;;;;;2.55;1.50;;;15.50;95.20;;;;;;5069349;28;20056;-82
2023/09/27 06:53:38;;;;;;;2.47;1.70;;;15.50;95.20;;;;;;5053497;28;20723;-83
2023/09/27 06:56:05;;;;;;;2.22;1.58;;;15.60;95.20;;;;;;5063805;28;20500;-83
2023/09/27 06:58:31;;;;;;;2.15;1.63;;;15.60;96.70;;;;;;5039458;28;20175;-83
2023/09/27 07:00:57;;;;;;;2.10;1.50;;;15.60;95.40;;;;;;5087047;28;20140;-83
2023/09/27 07:03:24;;;;;;;2.50;1.70;;;15.60;95.40;;;;;;5060185;28;20132;-83
2023/09/27 07:05:54;;;;;;;2.53;1.80;;;15.70;95.50;;;;;;5067349;28;20073;-83
2023/09/27 07:08:20;;;;;;;2.40;1.60;;;15.70;95.70;;;;;;5087599;28;20032;-82
2023/09/27 07:10:47;;;;;;;2.22;1.60;;;15.70;95.80;;;;;;5069267;28;20502;-83
2023/09/27 07:13:13;;;;;;;2.30;1.63;;;15.80;95.90;;;;;;5077696;28;20032;-82
2023/09/27 07:15:38;;;;;;;2.13;1.70;;;15.90;96.10;;;;;;5083102;28;20066;-82
2023/09/27 07:18:05;;;;;;;2.35;1.70;;;16.00;96.40;;;;;;5059942;28;20050;-82
2023/09/27 07:20:36;;;;;;;3.67;1.80;;;16.10;96.70;;;;;;5085329;28;20090;-82
2023/09/27 07:23:07;;;;;;;3.22;1.70;;;16.30;97.00;;;;;;5086101;28;20085;-82
2023/09/27 07:25:37;;;;;;;2.80;1.80;;;16.50;97.50;;;;;;5086778;28;20057;-83
2023/09/27 07:28:07;;;;;;;2.25;1.73;;;16.70;98.00;;;;;;5075939;28;20367;-82
2023/09/27 07:30:33;;;;;;;2.35;2.03;;;17.00;98.40;;;;;;5081039;28;20036;-82
2023/09/27 07:33:00;;;;;;;2.47;1.70;;;17.30;98.90;;;;;;5083119;28;20054;-82
2023/09/27 07:35:30;;;;;;;2.53;1.90;;;17.60;99.10;;;;;;5085349;28;20024;-83
2023/09/27 07:37:56;;;;;;;2.70;1.80;;;18.00;99.10;;;;;;5069284;28;20076;-82
2023/09/27 07:40:23;;;;;;;2.60;2.00;;;18.30;99.00;;;;;;5068443;28;20421;-82
2023/09/27 07:42:48;;;;;;;2.72;1.67;;;18.60;99.30;;;;;;5074040;28;20028;-82
2023/09/27 07:45:21;;;;;;;2.35;1.80;;;18.90;99.90;;;;;;5081888;28;20081;-82
2023/09/27 07:47:51;;;;;;;2.92;2.05;;;19.30;99.90;;;;;;5083057;28;20604;-82
2023/09/27 07:50:28;;;;;;;2.60;1.87;;;19.80;99.90;;;;;;5088351;28;20093;-82
2023/09/27 07:52:54;;;;;;;3.05;1.80;;;20.30;99.90;;;;;;5063955;28;20301;-82
2023/09/27 07:55:21;;;;;;;2.85;2.28;;;20.80;99.90;;;;;;5067649;28;20383;-82
2023/09/27 07:57:47;;;;;;;2.60;2.08;;;21.40;99.90;;;;;;5064799;28;20047;-83
2023/09/27 08:00:18;;;;;;;2.70;2.10;;;22.00;99.90;;;;;;5058568;28;20016;-83
2023/09/27 08:02:45;;;;;;;3.10;1.90;;;22.60;99.90;;;;;;5078441;28;20082;-83
2023/09/27 08:05:11;;;;;;;2.90;2.20;;;23.20;99.90;;;;;;5062574;28;20514;-83
2023/09/27 08:07:38;;;;;;;3.33;2.10;;;23.80;99.90;;;;;;5080272;28;20115;-83
2023/09/27 08:10:05;;;;;;;4.03;2.42;;;24.30;99.80;;;;;;5081091;28;20051;-83
2023/09/27 08:12:32;;;;;;;2.50;2.28;;;24.80;99.00;;;;;;5083852;28;20517;-83
2023/09/27 08:14:59;;;;;;;3.83;2.30;;;25.20;98.50;;;;;;5046014;28;20031;-83
2023/09/27 08:17:25;;;;;;;4.32;2.30;;;25.60;98.00;;;;;;5082665;28;20024;-82
2023/09/27 08:19:51;;;;;;;3.78;2.20;;;25.80;97.10;;;;;;5077577;28;20028;-83
2023/09/27 08:22:17;;;;;;;6.38;2.47;;;26.10;96.40;;;;;;5060954;28;20028;-83
2023/09/27 08:24:43;;;;;;;3.53;2.17;;;26.20;95.90;;;;;;5079229;28;20454;-83
2023/09/27 08:27:09;;;;;;;4.07;2.40;;;26.30;95.50;;;;;;5065437;28;20469;-83
2023/09/27 08:29:35;;;;;;;3.22;2.60;;;26.30;94.90;;;;;;5048309;28;20035;-83
2023/09/27 08:32:01;;;;;;;2.70;2.27;;;26.20;94.60;;;;;;5055774;28;20241;-82
2023/09/27 08:34:27;;;;;;;2.78;2.10;;;26.20;94.90;;;;;;5078366;28;20036;-83
2023/09/27 08:36:53;;;;;;;3.08;2.10;;;26.20;95.30;;;;;;5060851;28;20034;-83
2023/09/27 08:39:19;;;;;;;3.90;2.70;;;26.20;95.40;;;;;;5078436;28;20031;-83
2023/09/27 08:41:45;;;;;;;2.85;2.08;;;26.20;94.90;;;;;;5065186;28;20107;-83
2023/09/27 08:44:13;;;;;;;4.60;2.70;;;26.20;94.50;;;;;;5081493;28;20046;-83
2023/09/27 08:46:40;;;;;;;3.45;2.45;;;26.00;94.20;;;;;;5048528;28;20024;-83
2023/09/27 08:49:10;;;;;;;3.80;2.33;;;26.00;94.00;;;;;;5075766;28;20233;-83
2023/09/27 08:51:41;;;;;;;3.45;2.53;;;25.80;93.60;;;;;;5061585;28;20485;-82
2023/09/27 08:54:07;;;;;;;5.30;2.60;;;25.70;93.70;;;;;;5077090;28;20442;-83
2023/09/27 08:56:33;;;;;;;4.03;2.43;;;25.60;94.60;;;;;;5065601;28;20028;-83
2023/09/27 08:59:01;;;;;;;3.33;2.40;;;25.60;94.50;;;;;;5080258;28;20032;-83
2023/09/27 09:01:28;;;;;;;2.90;2.25;;;25.50;93.90;;;;;;5070262;28;20524;-83
2023/09/27 09:03:54;;;;;;;3.60;2.47;;;25.40;93.90;;;;;;5052365;28;20040;-83
2023/09/27 09:06:21;;;;;;;3.95;2.40;;;25.20;93.80;;;;;;5063002;28;20078;-84
2023/09/27 09:08:46;;;;;;;2.70;2.35;;;25.10;93.60;;;;;;5057187;28;20081;-85
2023/09/27 09:11:18;;;;;;;4.15;2.45;;;25.00;93.70;;;;;;5061521;28;20036;-83
2023/09/27 09:14:04;;;;;;;4.00;2.47;;;24.80;93.40;;;;;;5080076;28;20012;-83
2023/09/27 09:16:44;;;;;;;3.75;2.60;;;24.80;92.90;;;;;;5082588;28;20618;-83
2023/09/27 09:19:24;;;;;;;3.95;2.53;;;24.80;94.20;;;;;;5056543;28;20320;-83
2023/09/27 09:22:08;;;;;;;3.70;2.55;;;24.80;93.90;;;;;;5084805;28;20534;-83
2023/09/27 09:24:45;;;;;;;4.90;2.55;;;24.90;93.90;;;;;;5060833;28;20294;-83
2023/09/27 09:27:16;;;;;;;4.23;2.37;;;25.00;94.70;;;;;;5082206;28;20440;-83
2023/09/27 09:29:53;;;;;;;3.80;2.45;;;25.10;93.70;;;;;;5059945;28;20031;-84
2023/09/27 09:32:20;;;;;;;3.25;2.67;;;25.20;93.30;;;;;;5076546;28;20020;-84
2023/09/27 09:34:48;;;;;;;3.33;2.50;;;25.40;94.50;;;;;;5066515;28;20438;-84
2023/09/27 09:37:31;;;;;;;3.47;2.55;;;25.50;94.30;;;;;;5058224;28;20335;-84
2023/09/27 09:40:14;;;;;;;4.73;2.63;;;25.60;94.10;;;;;;5080239;28;20390;-84
2023/09/27 09:42:42;;;;;;;4.18;2.72;;;25.80;93.70;;;;;;5082795;28;20046;-84
2023/09/27 09:45:12;;;;;;;3.83;2.55;;;26.10;95.50;;;;;;5078143;28;20687;-84
2023/09/27 09:47:43;;;;;;;3.50;2.63;;;26.40;95.80;;;;;;5073454;28;20139;-83
2023/09/27 09:50:18;;;;;;;3.20;2.50;;;26.70;95.50;;;;;;5073783;28;20089;-83
2023/09/27 09:52:58;;;;;;;3.50;2.50;;;27.00;94.70;;;;;;5075788;28;20085;-85
2023/09/27 09:55:26;;;;;;;3.03;2.20;;;27.20;93.30;;;;;;5077279;28;20436;-84
2023/09/27 09:58:05;;;;;;;2.38;2.10;;;27.50;94.40;;;;;;5081202;28;20433;-85
2023/09/27 10:00:35;;;;;;;3.20;2.10;;;27.70;93.20;;;;;;5065823;28;20433;-83
2023/09/27 10:03:07;;;;;;;3.67;2.20;;;27.80;93.80;;;;;;5062984;28;20380;-84
2023/09/27 10:05:38;;;;;;;3.60;2.47;;;28.00;92.60;;;;;;5053909;28;20391;-84
2023/09/27 10:08:07;;;;;;;2.30;2.10;;;28.10;92.60;;;;;;5074137;28;20386;-85
2023/09/27 10:10:34;;;;;;;3.17;2.10;;;28.20;91.80;;;;;;5080890;28;20028;-83
2023/09/27 10:13:04;;;;;;;3.08;2.20;;;28.20;92.30;;;;;;5079385;28;20051;-83
2023/09/27 10:15:33;;;;;;;2.65;2.20;;;28.30;92.30;;;;;;5059971;28;20032;-84
2023/09/27 10:18:21;;;;;;;2.17;1.97;;;28.40;92.80;;;;;;5086928;28;20107;-84
2023/09/27 10:21:05;;;;;;;3.08;2.08;;;28.70;91.20;;;;;;5072388;28;20066;-84
2023/09/27 10:23:46;;;;;;;2.67;2.28;;;29.10;91.40;;;;;;5062484;28;20728;-84
2023/09/27 10:26:27;;;;;;;4.00;2.33;;;29.50;92.70;;;;;;5080836;28;20509;-83
2023/09/27 10:29:16;;;;;;;2.95;2.15;;;29.80;90.90;;;;;;5066149;28;20090;-84
2023/09/27 10:31:57;;;;;;;2.47;2.23;;;30.10;91.20;;;;;;5070463;28;20696;-85
2023/09/27 10:34:28;;;;;;;2.65;1.80;;;30.40;90.10;;;;;;5079466;28;20446;-83
2023/09/27 10:36:55;;;;;;;2.95;1.90;;;30.50;90.90;;;;;;5079785;28;20533;-84
2023/09/27 10:39:21;;;;;;;2.83;2.20;;;30.60;91.00;;;;;;5082754;28;20066;-84
2023/09/27 10:41:53;;;;;;;2.58;1.80;;;30.60;90.30;;;;;;5078803;28;20047;-83
2023/09/27 10:44:35;;;;;;;2.93;1.80;;;30.50;86.90;;;;;;5070972;28;20040;-83
2023/09/27 10:47:04;;;;;;;2.10;1.77;;;30.40;84.90;;;;;;5101675;28;20028;-84
2023/09/27 10:49:38;;;;;;;3.08;1.90;;;30.30;86.30;;;;;;5066738;28;20524;-83
2023/09/27 10:52:15;;;;;;;2.38;1.90;;;30.10;86.90;;;;;;5058552;28;20064;-84
2023/09/27 10:54:41;;;;;;;2.42;1.92;;;30.00;83.70;;;;;;5072788;28;20093;-84
2023/09/27 10:57:08;;;;;;;3.10;2.00;;;29.80;86.30;;;;;;5089076;28;20038;-83
2023/09/27 10:59:33;;;;;;;2.40;1.75;;;29.70;86.30;;;;;;5065236;28;20028;-84
2023/09/27 11:01:59;;;;;;;2.50;1.70;;;29.60;86.40;;;;;;5058338;28;20044;-83
2023/09/27 11:04:26;;;;;;;2.50;1.80;;;29.50;86.20;;;;;;5073280;28;20049;-83
2023/09/27 11:06:53;;;;;;;2.75;2.00;;;29.40;85.40;;;;;;5045916;28;20377;-83
2023/09/27 11:09:19;;;;;;;2.20;1.70;;;29.30;84.80;;;;;;5064355;28;20056;-84
2023/09/27 11:11:50;;;;;;;3.08;1.83;;;29.20;85.00;;;;;;5055913;28;20334;-84
2023/09/27 11:14:31;;;;;;;2.13;1.60;;;29.00;84.60;;;;;;5067459;28;20061;-83
2023/09/27 11:17:18;;;;;;;1.73;1.45;;;29.00;83.10;;;;;;5067045;28;20080;-82
2023/09/27 11:19:43;;;;;;;2.88;1.67;;;28.90;85.10;;;;;;5049289;28;20140;-83
2023/09/27 11:22:09;;;;;;;2.67;1.70;;;28.80;85.90;;;;;;5059682;28;20105;-83
2023/09/27 11:24:42;;;;;;;2.27;1.70;;;28.80;85.40;;;;;;5063026;28;20263;-82
2023/09/27 11:27:08;;;;;;;3.10;1.70;;;28.80;84.70;;;;;;5054678;28;20029;-82
2023/09/27 11:29:35;;;;;;;3.15;1.75;;;29.00;87.60;;;;;;5048358;28;20448;-84
2023/09/27 11:32:01;;;;;;;2.03;1.67;;;29.10;87.80;;;;;;5063231;28;20026;-84
2023/09/27 11:34:26;;;;;;;2.70;1.83;;;29.30;87.70;;;;;;4996810;28;20671;-83
2023/09/27 11:37:02;;;;;;;3.20;1.83;;;29.50;87.20;;;;;;5067223;28;20037;-83
2023/09/27 11:39:57;;;;;;;1.90;1.70;;;29.70;85.40;;;;;;5041668;28;20399;-84
2023/09/27 11:42:24;;;;;;;1.90;1.63;;;29.90;83.80;;;;;;5031453;28;20273;-84
2023/09/27 11:45:08;;;;;;;2.17;1.60;;;30.10;87.60;;;;;;5066726;28;20030;-83
2023/09/27 11:47:52;;;;;;;1.70;1.50;;;30.40;83.90;;;;;;5071847;28;20018;-84
2023/09/27 11:50:19;;;;;;;2.20;1.70;;;30.70;84.10;;;;;;5051083;28;20034;-84
2023/09/27 11:52:49;;;;;;;5.07;2.00;;;31.00;88.40;;;;;;5052489;28;20061;-83
2023/09/27 11:55:15;;;;;;;2.30;2.03;;;31.40;88.70;;;;;;5037288;28;20033;-86
2023/09/27 11:57:41;;;;;;;2.03;1.70;;;31.80;88.00;;;;;;5064420;28;20052;-84
2023/09/27 12:00:15;;;;;;;2.17;1.90;;;32.10;88.00;;;;;;5045712;28;20033;-86
2023/09/27 12:02:44;;;;;;;2.72;2.15;;;32.40;85.40;;;;;;5056733;28;20061;-85
2023/09/27 12:05:10;;;;;;;2.65;2.05;;;32.80;85.40;;;;;;5043771;28;20026;-83
2023/09/27 12:07:36;;;;;;;2.72;2.10;;;33.20;87.00;;;;;;5064314;28;20034;-82
2023/09/27 12:10:02;;;;;;;2.87;1.87;;;33.50;86.60;;;;;;5069975;28;20029;-84
2023/09/27 12:12:28;;;;;;;2.20;2.00;;;33.90;85.70;;;;;;5000610;28;20038;-83
2023/09/27 12:14:54;;;;;;;2.28;2.08;;;34.20;85.40;;;;;;5069522;28;20029;-83
2023/09/27 12:17:19;;;;;;;2.23;1.97;;;34.40;84.40;;;;;;5052406;28;20621;-83
2023/09/27 12:19:45;;;;;;;3.38;2.30;;;34.70;83.20;;;;;;5071590;28;20030;-83
2023/09/27 12:22:12;;;;;;;2.83;1.92;;;34.90;82.40;;;;;;5065861;28;20097;-84
2023/09/27 12:24:38;;;;;;;2.30;2.10;;;35.20;81.60;;;;;;5060706;28;20430;-84
2023/09/27 12:27:04;;;;;;;3.20;2.30;;;35.40;80.50;;;;;;5046701;28;20559;-83
2023/09/27 12:29:30;;;;;;;2.65;2.28;;;35.50;78.50;;;;;;5069219;28;20520;-84
2023/09/27 12:31:56;;;;;;;2.85;2.20;;;35.60;77.60;;;;;;5063484;28;20032;-85
2023/09/27 12:34:22;;;;;;;2.70;2.00;;;35.60;76.40;;;;;;5064071;28;20066;-82
2023/09/27 12:36:48;;;;;;;2.22;2.00;;;35.60;74.50;;;;;;5064706;28;20510;-84
2023/09/27 12:39:14;;;;;;;2.25;2.05;;;35.40;72.90;;;;;;4984674;28;20029;-84
2023/09/27 12:41:40;;;;;;;2.20;1.97;;;35.20;71.80;;;;;;4996274;28;20026;-84
2023/09/27 12:44:06;;;;;;;2.10;1.90;;;34.90;71.20;;;;;;5057373;28;20033;-84
2023/09/27 12:46:31;;;;;;;2.27;1.93;;;34.60;70.60;;;;;;5042896;28;20527;-83
2023/09/27 12:48:57;;;;;;;2.40;1.90;;;34.20;70.20;;;;;;5061673;28;20285;-84
2023/09/27 12:51:23;;;;;;;1.92;1.60;;;33.90;70.40;;;;;;5065851;28;20061;-84